Time;durP1;ratioP1;P1;durP2;ratioP2;P2;SDS_P1;SDS_P2;PMS_P1;PMS_P2;Temp;Humidity;BMP_temperature;BMP_pressure;BME280_temperature;BME280_humidity;BME280_pressure;Samples;Min_cycle;Max_cycle;Signal;HPM_P1;HPM_P2
2023/12/26 00:00:29;;;;;;;0.38;0.28;;;11.80;99.90;;;;;;5000046;28;20026;-67
2023/12/26 00:02:54;;;;;;;0.30;0.30;;;11.80;99.90;;;;;;5000136;28;20034;-67
2023/12/26 00:05:21;;;;;;;0.32;0.20;;;11.70;99.90;;;;;;4999478;28;20026;-67
2023/12/26 00:07:47;;;;;;;0.28;0.10;;;11.70;99.90;;;;;;5000670;28;20015;-67
2023/12/26 00:10:15;;;;;;;0.52;0.10;;;11.80;99.90;;;;;;5000419;28;20076;-67
2023/12/26 00:12:42;;;;;;;0.10;0.10;;;11.80;99.90;;;;;;4999963;28;20022;-67
2023/12/26 00:15:08;;;;;;;0.47;0.15;;;11.80;99.90;;;;;;4999088;28;20030;-67
2023/12/26 00:17:34;;;;;;;0.10;0.10;;;11.80;99.90;;;;;;4999993;28;20030;-67
2023/12/26 00:19:59;;;;;;;0.08;0.03;;;11.80;99.90;;;;;;4998979;28;20026;-67
2023/12/26 00:22:25;;;;;;;0.13;0.10;;;11.80;99.90;;;;;;4999306;28;20022;-67
2023/12/26 00:24:52;;;;;;;0.10;0.10;;;11.80;99.90;;;;;;4999043;28;20026;-67
2023/12/26 00:27:18;;;;;;;0.20;0.17;;;11.80;99.90;;;;;;5000121;28;20023;-67
2023/12/26 00:29:43;;;;;;;0.32;0.20;;;11.90;99.90;;;;;;4999885;28;20033;-67
2023/12/26 00:32:09;;;;;;;0.00;0.00;;;11.80;99.90;;;;;;5000222;28;20050;-68
2023/12/26 00:34:34;;;;;;;0.30;0.20;;;11.80;99.90;;;;;;4999928;28;20034;-67
2023/12/26 00:37:00;;;;;;;0.10;0.10;;;11.80;99.90;;;;;;4998837;28;20025;-67
2023/12/26 00:39:26;;;;;;;4.38;0.10;;;11.80;99.90;;;;;;4999375;28;20041;-67
2023/12/26 00:41:51;;;;;;;0.80;0.20;;;11.80;99.90;;;;;;4998621;28;20018;-67
2023/12/26 00:44:17;;;;;;;0.52;0.20;;;11.70;99.90;;;;;;5000005;28;20065;-67
2023/12/26 00:46:46;;;;;;;0.20;0.20;;;11.70;99.90;;;;;;4999512;28;20073;-67
2023/12/26 00:49:12;;;;;;;0.10;0.10;;;11.70;99.90;;;;;;4999756;28;20026;-67
2023/12/26 00:51:37;;;;;;;0.03;0.00;;;11.70;99.90;;;;;;4999394;28;20057;-67
2023/12/26 00:54:03;;;;;;;0.22;0.10;;;11.80;99.90;;;;;;4998930;28;20026;-67
2023/12/26 00:56:28;;;;;;;0.10;0.10;;;11.80;99.90;;;;;;4998389;28;20030;-67
2023/12/26 00:58:54;;;;;;;0.20;0.10;;;11.80;99.90;;;;;;4997914;28;20041;-67
2023/12/26 01:01:19;;;;;;;0.00;0.00;;;11.70;99.90;;;;;;4998210;28;20031;-67
2023/12/26 01:03:46;;;;;;;0.15;0.00;;;11.70;99.90;;;;;;4998204;28;20054;-67
2023/12/26 01:06:14;;;;;;;0.25;0.10;;;11.70;99.90;;;;;;4999320;28;20018;-67
2023/12/26 01:08:39;;;;;;;0.00;0.00;;;11.70;99.90;;;;;;4998473;28;20033;-67
2023/12/26 01:11:05;;;;;;;0.00;0.00;;;11.70;99.90;;;;;;4998306;28;20022;-68
2023/12/26 01:13:34;;;;;;;0.15;0.00;;;11.70;99.90;;;;;;4998071;28;20022;-67
2023/12/26 01:16:01;;;;;;;0.10;0.10;;;11.70;99.90;;;;;;4998848;28;20121;-67
2023/12/26 01:18:27;;;;;;;1.08;0.00;;;11.80;99.90;;;;;;4998076;28;20037;-67
2023/12/26 01:20:52;;;;;;;0.17;0.00;;;11.80;99.90;;;;;;4998693;28;20105;-67
2023/12/26 01:23:18;;;;;;;0.20;0.10;;;11.70;99.90;;;;;;4997886;28;20065;-67
2023/12/26 01:25:44;;;;;;;0.00;0.00;;;11.70;99.90;;;;;;4997847;28;20061;-67
2023/12/26 01:28:09;;;;;;;0.08;0.08;;;11.70;99.90;;;;;;4997981;28;20029;-67
2023/12/26 01:30:38;;;;;;;0.13;0.00;;;11.70;99.90;;;;;;4997862;28;20032;-67
2023/12/26 01:33:04;;;;;;;0.05;0.05;;;11.70;99.90;;;;;;4998956;28;20033;-68
2023/12/26 01:35:30;;;;;;;0.00;0.00;;;11.70;99.90;;;;;;4998734;28;20030;-67
2023/12/26 01:37:56;;;;;;;0.00;0.00;;;11.80;99.90;;;;;;4997928;28;20022;-67
2023/12/26 01:40:40;;;;;;;0.00;0.00;;;11.80;99.90;;;;;;4997394;28;20026;-67
2023/12/26 01:43:06;;;;;;;0.00;0.00;;;11.80;99.90;;;;;;4997408;28;20031;-67
2023/12/26 01:45:31;;;;;;;0.00;0.00;;;11.80;99.90;;;;;;4997784;28;20051;-67
2023/12/26 01:47:59;;;;;;;0.00;0.00;;;11.70;99.90;;;;;;4997618;28;20027;-67
2023/12/26 01:50:25;;;;;;;0.98;0.00;;;11.70;99.90;;;;;;4997322;28;20042;-68
2023/12/26 01:52:52;;;;;;;0.00;0.00;;;11.70;99.90;;;;;;4998559;28;20069;-68
2023/12/26 01:55:19;;;;;;;0.32;0.00;;;11.70;99.90;;;;;;4997410;28;20033;-67
2023/12/26 01:57:45;;;;;;;0.10;0.10;;;11.80;99.90;;;;;;4998077;28;20041;-67
2023/12/26 02:00:11;;;;;;;0.55;0.08;;;11.80;99.90;;;;;;4997310;28;20026;-67
2023/12/26 02:02:38;;;;;;;0.25;0.25;;;11.70;99.90;;;;;;4998587;28;20042;-67
2023/12/26 02:05:04;;;;;;;0.10;0.08;;;11.70;99.90;;;;;;4997729;28;20049;-67
2023/12/26 02:07:29;;;;;;;0.55;0.00;;;11.80;99.90;;;;;;4997994;28;20023;-67
2023/12/26 02:09:55;;;;;;;0.00;0.00;;;11.80;99.90;;;;;;4997071;28;20022;-68
2023/12/26 02:12:21;;;;;;;1.45;0.10;;;11.70;99.90;;;;;;4998055;28;20026;-67
2023/12/26 02:14:47;;;;;;;0.00;0.00;;;11.70;99.90;;;;;;4997832;28;20026;-67
2023/12/26 02:17:24;;;;;;;0.98;0.00;;;11.70;99.90;;;;;;4997074;28;20098;-67
2023/12/26 02:19:50;;;;;;;0.32;0.10;;;11.60;99.90;;;;;;4997658;28;20033;-67
2023/12/26 02:22:16;;;;;;;0.20;0.00;;;11.60;99.90;;;;;;4997651;28;20022;-67
2023/12/26 02:24:42;;;;;;;0.20;0.00;;;11.60;99.90;;;;;;4997581;28;20033;-68
2023/12/26 02:27:24;;;;;;;0.10;0.10;;;11.60;99.90;;;;;;4996893;28;20061;-67
2023/12/26 02:29:52;;;;;;;;;;;11.60;99.90;;;;;;4998488;28;20027;-67
2023/12/26 02:32:19;;;;;;;2.45;0.20;;;11.60;99.90;;;;;;4996586;28;19906;-67
2023/12/26 02:34:47;;;;;;;0.00;0.00;;;11.60;99.90;;;;;;4997037;28;20033;-67
2023/12/26 02:37:13;;;;;;;0.03;0.00;;;11.50;99.90;;;;;;4997737;28;20026;-67
2023/12/26 02:39:39;;;;;;;2.63;0.00;;;11.40;99.90;;;;;;4996675;28;20030;-67
2023/12/26 02:42:05;;;;;;;0.47;0.00;;;11.40;99.90;;;;;;4997052;28;20037;-67
2023/12/26 02:44:31;;;;;;;0.00;0.00;;;11.30;99.90;;;;;;4996745;28;20022;-67
2023/12/26 02:46:56;;;;;;;0.20;0.00;;;11.30;99.90;;;;;;4996681;28;20113;-62
2023/12/26 02:49:22;;;;;;;0.00;0.00;;;11.30;99.90;;;;;;4996773;28;20026;-62
2023/12/26 02:51:48;;;;;;;1.40;0.10;;;11.20;99.90;;;;;;4996806;28;20030;-62
2023/12/26 02:54:13;;;;;;;0.15;0.10;;;11.20;99.90;;;;;;4996855;28;20033;-62
2023/12/26 02:56:39;;;;;;;0.03;0.00;;;11.00;99.90;;;;;;4997560;28;20026;-62
2023/12/26 02:59:04;;;;;;;0.00;0.00;;;10.90;99.90;;;;;;4997409;28;20086;-62
2023/12/26 03:01:30;;;;;;;0.00;0.00;;;10.90;99.90;;;;;;4996550;28;20035;-62
2023/12/26 03:03:55;;;;;;;1.05;0.05;;;11.00;99.90;;;;;;4996419;28;20022;-62
2023/12/26 03:06:21;;;;;;;0.00;0.00;;;11.00;99.90;;;;;;4996852;28;20027;-63
2023/12/26 03:08:46;;;;;;;0.32;0.17;;;11.00;99.90;;;;;;4997389;28;20035;-63
2023/12/26 03:11:12;;;;;;;0.00;0.00;;;11.00;99.90;;;;;;4997505;28;20026;-62
2023/12/26 03:13:37;;;;;;;0.00;0.00;;;11.10;99.90;;;;;;4997396;28;20018;-62
2023/12/26 03:16:03;;;;;;;0.10;0.08;;;11.10;99.90;;;;;;4997307;28;20026;-62
2023/12/26 03:18:29;;;;;;;0.45;0.10;;;11.10;99.90;;;;;;4996861;28;20027;-63
2023/12/26 03:20:54;;;;;;;0.17;0.10;;;11.10;99.90;;;;;;4998339;28;20030;-62
2023/12/26 03:23:20;;;;;;;0.10;0.00;;;11.10;99.90;;;;;;5000102;28;20023;-62
2023/12/26 03:25:45;;;;;;;0.20;0.08;;;11.10;99.90;;;;;;5000129;28;20022;-62
2023/12/26 03:28:11;;;;;;;0.20;0.10;;;11.10;99.90;;;;;;5000325;28;20018;-62
2023/12/26 03:30:38;;;;;;;0.22;0.20;;;11.00;99.90;;;;;;5000222;28;20018;-62
2023/12/26 03:33:04;;;;;;;0.17;0.05;;;10.90;99.90;;;;;;5000016;28;20122;-62
2023/12/26 03:35:29;;;;;;;1.00;0.15;;;10.90;99.90;;;;;;4999816;28;20069;-62
2023/12/26 03:37:55;;;;;;;1.48;0.52;;;10.90;99.90;;;;;;5000632;28;20037;-62
2023/12/26 03:40:21;;;;;;;0.68;0.20;;;10.90;99.90;;;;;;5000121;28;20117;-62
2023/12/26 03:42:47;;;;;;;0.95;0.17;;;10.90;99.90;;;;;;5000138;28;20077;-62
2023/12/26 03:45:13;;;;;;;0.60;0.10;;;10.90;99.90;;;;;;4999745;28;20033;-62
2023/12/26 03:47:38;;;;;;;2.28;0.40;;;10.80;99.90;;;;;;4999864;28;20034;-62
2023/12/26 03:50:07;;;;;;;0.75;0.30;;;10.90;99.90;;;;;;5000655;28;20027;-62
2023/12/26 03:52:33;;;;;;;1.38;0.40;;;11.00;99.90;;;;;;4999826;28;20030;-62
2023/12/26 03:54:59;;;;;;;1.85;0.30;;;11.00;99.90;;;;;;4999791;28;20081;-62
2023/12/26 03:57:25;;;;;;;0.52;0.13;;;10.90;99.90;;;;;;4999761;28;20026;-62
2023/12/26 03:59:50;;;;;;;0.45;0.38;;;10.70;99.90;;;;;;4999591;28;20121;-62
2023/12/26 04:02:16;;;;;;;1.00;0.50;;;10.60;99.90;;;;;;4999218;28;20088;-62
2023/12/26 04:04:41;;;;;;;5.40;0.80;;;10.70;99.90;;;;;;4999435;28;20048;-62
2023/12/26 04:07:08;;;;;;;3.92;0.70;;;10.70;99.90;;;;;;4999675;28;20049;-62
2023/12/26 04:09:33;;;;;;;0.57;0.40;;;10.70;99.90;;;;;;4999617;28;20022;-62
2023/12/26 04:11:59;;;;;;;1.30;0.30;;;10.70;99.90;;;;;;4999995;28;20159;-62
2023/12/26 04:14:24;;;;;;;1.35;0.32;;;10.70;99.90;;;;;;4999147;28;20077;-62
2023/12/26 04:16:50;;;;;;;1.42;0.40;;;10.70;99.90;;;;;;4999434;28;20031;-62
2023/12/26 04:19:16;;;;;;;0.80;0.22;;;10.70;99.90;;;;;;4999967;28;20033;-62
2023/12/26 04:21:41;;;;;;;1.30;0.30;;;10.60;99.90;;;;;;4999814;28;20066;-62
2023/12/26 04:24:07;;;;;;;2.05;0.50;;;10.60;99.90;;;;;;4999328;28;20161;-62
2023/12/26 04:26:36;;;;;;;1.50;0.40;;;10.60;99.90;;;;;;4998966;28;20031;-63
2023/12/26 04:29:01;;;;;;;1.08;0.30;;;10.60;99.90;;;;;;4999172;28;20022;-62
2023/12/26 04:31:27;;;;;;;2.70;0.47;;;10.50;99.90;;;;;;4998626;28;20109;-62
2023/12/26 04:33:53;;;;;;;1.98;0.50;;;10.50;99.90;;;;;;4998789;28;20019;-62
2023/12/26 04:36:18;;;;;;;5.20;1.38;;;10.60;99.90;;;;;;4999274;28;20019;-62
2023/12/26 04:38:44;;;;;;;3.78;0.50;;;10.50;99.90;;;;;;4998719;28;20027;-62
2023/12/26 04:41:11;;;;;;;1.90;0.65;;;10.50;99.90;;;;;;4998806;28;20030;-62
2023/12/26 04:43:37;;;;;;;3.40;0.45;;;10.50;99.90;;;;;;4998675;28;20029;-62
2023/12/26 04:46:02;;;;;;;1.02;0.50;;;10.50;99.90;;;;;;4998926;28;20014;-62
2023/12/26 04:48:28;;;;;;;2.17;0.90;;;10.40;99.90;;;;;;4998824;28;20022;-62
2023/12/26 04:50:53;;;;;;;3.30;0.47;;;10.40;99.90;;;;;;4998565;28;20026;-62
2023/12/26 04:53:19;;;;;;;3.75;1.35;;;10.30;99.90;;;;;;4998755;28;20033;-62
2023/12/26 04:55:45;;;;;;;2.28;0.75;;;10.30;99.90;;;;;;4998908;28;20103;-62
2023/12/26 04:58:10;;;;;;;2.08;0.90;;;10.30;99.90;;;;;;4998420;28;20026;-62
2023/12/26 05:00:37;;;;;;;0.68;0.30;;;10.30;99.90;;;;;;4998745;28;20038;-63
2023/12/26 05:03:03;;;;;;;1.27;0.57;;;10.30;99.90;;;;;;4999568;28;20031;-62
2023/12/26 05:05:29;;;;;;;1.92;0.68;;;10.30;99.90;;;;;;4998133;28;20034;-62
2023/12/26 05:07:54;;;;;;;2.53;0.60;;;10.30;99.90;;;;;;4998455;28;20026;-62
2023/12/26 05:10:20;;;;;;;3.13;0.60;;;10.40;99.90;;;;;;4998463;28;20026;-62
2023/12/26 05:12:46;;;;;;;3.35;0.70;;;10.40;99.90;;;;;;4998329;28;20045;-62
2023/12/26 05:15:11;;;;;;;1.05;0.93;;;10.40;99.90;;;;;;4998329;28;20030;-63
2023/12/26 05:17:37;;;;;;;2.08;1.38;;;10.40;99.90;;;;;;5030813;23;20045;-71
2023/12/26 05:20:03;;;;;;;1.40;0.55;;;10.40;99.90;;;;;;5017507;28;20021;-71
2023/12/26 05:22:29;;;;;;;2.50;0.63;;;10.40;99.90;;;;;;5018595;28;20057;-71
2023/12/26 05:24:55;;;;;;;2.65;0.73;;;10.40;99.90;;;;;;5017394;28;20021;-72
2023/12/26 05:27:20;;;;;;;3.40;0.75;;;10.30;99.90;;;;;;5018416;28;20026;-71
2023/12/26 05:29:46;;;;;;;3.42;0.80;;;10.30;99.90;;;;;;5018272;28;20040;-71
2023/12/26 05:32:11;;;;;;;1.02;0.50;;;10.30;99.90;;;;;;5018154;28;20033;-71
2023/12/26 05:34:37;;;;;;;1.10;0.80;;;10.30;99.90;;;;;;5018446;28;20026;-71
2023/12/26 05:37:03;;;;;;;5.40;0.88;;;10.20;99.90;;;;;;5018086;28;20033;-71
2023/12/26 05:39:28;;;;;;;1.88;0.70;;;10.30;99.90;;;;;;5017430;28;20030;-71
2023/12/26 05:41:54;;;;;;;3.42;0.70;;;10.30;99.90;;;;;;5018186;28;20056;-71
2023/12/26 05:44:19;;;;;;;3.38;1.20;;;10.30;99.90;;;;;;5016839;28;20053;-71
2023/12/26 05:46:45;;;;;;;2.05;0.73;;;10.30;99.90;;;;;;5018014;28;20030;-71
2023/12/26 05:49:11;;;;;;;2.92;0.70;;;10.20;99.90;;;;;;5017995;28;20068;-71
2023/12/26 05:51:37;;;;;;;2.38;0.85;;;10.10;99.90;;;;;;5017041;28;20017;-71
2023/12/26 05:54:03;;;;;;;2.35;0.98;;;10.10;99.90;;;;;;5017055;28;20021;-72
2023/12/26 05:56:28;;;;;;;1.42;0.88;;;10.00;99.90;;;;;;5017754;28;20079;-71
2023/12/26 05:58:54;;;;;;;4.22;1.27;;;10.10;99.90;;;;;;5016847;28;20037;-71
2023/12/26 06:01:20;;;;;;;4.10;0.85;;;10.00;99.90;;;;;;5017794;28;20029;-71
2023/12/26 06:03:46;;;;;;;1.38;0.90;;;10.00;99.90;;;;;;5017921;28;20153;-71
2023/12/26 06:06:12;;;;;;;2.78;0.60;;;10.00;99.90;;;;;;5017705;28;20018;-71
2023/12/26 06:08:39;;;;;;;2.15;0.80;;;10.00;99.90;;;;;;5016778;28;20026;-71
2023/12/26 06:11:04;;;;;;;2.75;0.90;;;10.00;99.90;;;;;;5017005;28;20026;-71
2023/12/26 06:13:30;;;;;;;1.90;0.77;;;10.00;99.90;;;;;;5017975;28;20034;-71
2023/12/26 06:15:55;;;;;;;3.50;0.90;;;10.10;99.90;;;;;;5017506;28;20029;-71
2023/12/26 06:18:21;;;;;;;3.80;0.88;;;10.10;99.90;;;;;;5016491;28;20029;-71
2023/12/26 06:20:47;;;;;;;2.53;1.15;;;10.10;99.90;;;;;;5016886;28;20112;-71
2023/12/26 06:23:12;;;;;;;1.60;1.00;;;10.10;99.90;;;;;;5017730;28;20029;-71
2023/12/26 06:25:38;;;;;;;1.55;0.70;;;10.10;99.90;;;;;;5016616;28;20089;-72
2023/12/26 06:28:04;;;;;;;5.88;0.73;;;10.00;99.90;;;;;;5017447;28;20049;-71
2023/12/26 06:30:30;;;;;;;2.90;1.00;;;10.00;99.90;;;;;;5017649;28;20053;-71
2023/12/26 06:32:56;;;;;;;5.38;0.68;;;10.00;99.90;;;;;;5016602;28;20033;-71
2023/12/26 06:35:21;;;;;;;2.38;0.52;;;10.10;99.90;;;;;;5016409;28;20103;-71
2023/12/26 06:37:47;;;;;;;2.03;0.80;;;10.10;99.90;;;;;;5016701;28;20022;-71
2023/12/26 06:40:12;;;;;;;5.05;0.73;;;10.10;99.90;;;;;;5016511;28;20026;-71
2023/12/26 06:42:38;;;;;;;4.40;0.82;;;10.20;99.90;;;;;;5017383;28;20018;-71
2023/12/26 06:45:04;;;;;;;1.45;0.95;;;10.00;99.90;;;;;;5017315;28;20026;-71
2023/12/26 06:47:29;;;;;;;1.80;0.80;;;10.10;99.90;;;;;;5016306;28;20021;-71
2023/12/26 06:49:55;;;;;;;5.95;0.63;;;10.10;99.90;;;;;;5017224;28;20109;-71
2023/12/26 06:52:20;;;;;;;2.22;0.65;;;10.10;99.90;;;;;;5016248;28;20030;-72
2023/12/26 06:54:46;;;;;;;2.15;0.50;;;10.20;99.90;;;;;;5017094;28;20029;-71
2023/12/26 06:57:15;;;;;;;2.88;1.10;;;10.10;99.90;;;;;;5021455;28;20086;-71
2023/12/26 06:59:48;;;;;;;2.00;0.52;;;10.10;99.90;;;;;;5021564;28;20026;-71
2023/12/26 07:02:15;;;;;;;1.60;0.90;;;10.20;99.90;;;;;;5021076;28;20080;-71
2023/12/26 07:04:42;;;;;;;2.03;0.77;;;10.20;99.90;;;;;;5020587;28;20022;-71
2023/12/26 07:07:07;;;;;;;1.75;0.52;;;10.20;99.90;;;;;;5019914;28;20029;-71
2023/12/26 07:09:33;;;;;;;5.50;1.13;;;10.20;99.90;;;;;;5021178;28;20112;-71
2023/12/26 07:11:59;;;;;;;2.63;0.50;;;10.20;99.90;;;;;;5020072;28;20026;-71
2023/12/26 07:14:24;;;;;;;1.30;0.50;;;10.20;99.90;;;;;;5021123;28;20036;-71
2023/12/26 07:16:50;;;;;;;5.88;0.77;;;10.20;99.90;;;;;;5020861;28;20033;-71
2023/12/26 07:19:15;;;;;;;6.97;0.98;;;10.30;99.90;;;;;;5019741;28;20029;-71
2023/12/26 07:21:41;;;;;;;1.50;0.50;;;10.30;99.90;;;;;;5020797;28;20018;-71
2023/12/26 07:24:07;;;;;;;5.47;0.70;;;10.30;99.90;;;;;;5019800;28;20029;-71
2023/12/26 07:26:32;;;;;;;2.10;0.60;;;10.30;99.90;;;;;;5020483;28;20077;-71
2023/12/26 07:28:58;;;;;;;4.05;0.60;;;10.30;99.90;;;;;;5020669;28;20022;-72
2023/12/26 07:31:25;;;;;;;1.38;0.60;;;10.30;99.90;;;;;;5019678;28;20026;-72
2023/12/26 07:33:51;;;;;;;1.48;0.60;;;10.20;99.90;;;;;;5021023;28;20029;-71
2023/12/26 07:36:17;;;;;;;1.83;0.57;;;10.30;99.90;;;;;;5020160;28;20030;-71
2023/12/26 07:38:43;;;;;;;2.40;0.68;;;10.30;99.90;;;;;;5019456;28;20022;-71
2023/12/26 07:41:09;;;;;;;1.27;0.60;;;10.40;99.90;;;;;;5020469;28;20096;-71
2023/12/26 07:43:35;;;;;;;1.05;0.50;;;10.50;99.90;;;;;;5020318;28;20022;-71
2023/12/26 07:46:00;;;;;;;1.33;0.38;;;10.50;99.90;;;;;;5019565;28;20105;-71
2023/12/26 07:48:26;;;;;;;2.78;0.65;;;10.50;99.90;;;;;;5020239;28;20017;-71
2023/12/26 07:50:52;;;;;;;0.50;0.50;;;10.50;99.90;;;;;;5019569;28;20066;-71
2023/12/26 07:53:17;;;;;;;3.35;0.82;;;10.50;99.90;;;;;;5020036;28;20026;-71
2023/12/26 07:55:43;;;;;;;0.63;0.55;;;10.50;99.90;;;;;;5020184;28;20029;-71
2023/12/26 07:58:08;;;;;;;0.73;0.22;;;10.50;99.90;;;;;;5019330;28;20056;-71
2023/12/26 08:00:34;;;;;;;5.55;0.70;;;10.50;99.90;;;;;;5020447;28;20029;-72
2023/12/26 08:03:00;;;;;;;0.88;0.73;;;10.50;99.90;;;;;;5018970;28;20022;-71
2023/12/26 08:05:26;;;;;;;2.42;0.60;;;10.40;99.90;;;;;;5019886;28;20022;-71
2023/12/26 08:07:51;;;;;;;2.78;0.60;;;10.50;99.90;;;;;;5018758;28;20117;-71
2023/12/26 08:10:17;;;;;;;2.00;0.47;;;10.40;99.90;;;;;;5020005;28;20033;-71
2023/12/26 08:12:43;;;;;;;1.92;0.60;;;10.40;99.90;;;;;;5019786;28;20101;-71
2023/12/26 08:15:09;;;;;;;2.63;0.60;;;10.40;99.90;;;;;;5019608;28;20058;-71
2023/12/26 08:17:35;;;;;;;1.58;0.68;;;10.40;99.90;;;;;;5018763;28;20049;-71
2023/12/26 08:20:01;;;;;;;1.70;0.65;;;10.30;99.90;;;;;;5019661;28;20030;-71
2023/12/26 08:22:26;;;;;;;1.38;0.40;;;10.20;99.90;;;;;;5019383;28;20088;-71
2023/12/26 08:24:52;;;;;;;3.00;0.60;;;10.20;99.90;;;;;;5018522;28;20026;-72
2023/12/26 08:27:18;;;;;;;1.48;0.60;;;10.20;99.90;;;;;;5018299;28;20053;-71
2023/12/26 08:29:44;;;;;;;4.85;0.63;;;10.20;99.90;;;;;;5019284;28;20033;-72
2023/12/26 08:32:10;;;;;;;1.85;1.08;;;10.30;99.90;;;;;;5018756;28;20022;-72
2023/12/26 08:34:35;;;;;;;2.13;0.40;;;10.40;99.90;;;;;;5018727;28;20026;-71
2023/12/26 08:37:01;;;;;;;4.78;0.40;;;10.30;99.90;;;;;;5018446;28;20026;-72
2023/12/26 08:39:26;;;;;;;0.95;0.63;;;10.30;99.90;;;;;;5019758;28;20028;-72
2023/12/26 08:41:52;;;;;;;0.40;0.40;;;10.30;99.90;;;;;;5019202;28;20036;-71
2023/12/26 08:44:18;;;;;;;2.60;0.50;;;10.30;99.90;;;;;;5019345;28;20026;-72
2023/12/26 08:46:43;;;;;;;2.00;0.60;;;10.30;99.90;;;;;;5018264;28;20022;-71
2023/12/26 08:49:09;;;;;;;0.73;0.40;;;10.40;99.90;;;;;;5019381;28;20080;-71
2023/12/26 08:51:39;;;;;;;0.77;0.40;;;10.30;99.90;;;;;;5019276;28;20070;-71
2023/12/26 08:54:05;;;;;;;2.13;0.60;;;10.30;99.90;;;;;;5019252;28;20024;-71
2023/12/26 08:56:30;;;;;;;2.35;0.40;;;10.30;99.90;;;;;;5018559;28;20018;-71
2023/12/26 08:58:56;;;;;;;1.98;0.85;;;10.30;99.90;;;;;;5019036;28;20025;-71
2023/12/26 09:01:21;;;;;;;1.08;0.35;;;10.30;99.90;;;;;;5017950;28;20030;-71
2023/12/26 09:03:48;;;;;;;2.50;0.60;;;10.40;99.90;;;;;;5017940;28;20025;-71
2023/12/26 09:06:14;;;;;;;0.90;0.65;;;10.40;99.90;;;;;;5018256;28;20026;-71
2023/12/26 09:08:40;;;;;;;1.58;0.40;;;10.50;99.90;;;;;;5018599;28;20033;-71
2023/12/26 09:11:05;;;;;;;2.50;0.50;;;10.50;99.90;;;;;;5018663;28;20025;-71
2023/12/26 09:13:31;;;;;;;0.50;0.45;;;10.60;99.90;;;;;;5018500;28;20022;-71
2023/12/26 09:15:59;;;;;;;1.20;0.38;;;10.60;99.90;;;;;;5017840;28;20060;-71
2023/12/26 09:18:24;;;;;;;3.13;0.50;;;10.60;99.90;;;;;;5017995;28;20026;-71
2023/12/26 09:20:50;;;;;;;2.00;0.55;;;10.60;99.90;;;;;;5018460;28;20036;-71
2023/12/26 09:23:16;;;;;;;1.00;0.55;;;10.70;99.90;;;;;;5018452;28;20018;-71
2023/12/26 09:25:41;;;;;;;1.10;0.82;;;10.70;99.90;;;;;;5018575;28;20018;-71
2023/12/26 09:28:08;;;;;;;1.08;0.40;;;10.80;99.90;;;;;;5018350;28;20105;-71
2023/12/26 09:30:34;;;;;;;0.68;0.30;;;10.80;99.90;;;;;;5017718;28;20025;-71
2023/12/26 09:33:00;;;;;;;1.20;0.40;;;10.80;99.90;;;;;;5017410;28;20048;-71
2023/12/26 09:35:25;;;;;;;1.35;0.50;;;10.80;99.90;;;;;;5017791;28;20026;-71
2023/12/26 09:37:51;;;;;;;0.73;0.43;;;10.80;99.90;;;;;;5017564;28;20099;-71
2023/12/26 09:40:18;;;;;;;0.38;0.20;;;10.90;99.90;;;;;;5017203;28;20104;-71
2023/12/26 09:42:43;;;;;;;0.40;0.28;;;10.90;99.90;;;;;;5018011;28;20097;-71
2023/12/26 09:45:11;;;;;;;2.28;0.40;;;10.80;99.90;;;;;;5017400;28;20115;-71
2023/12/26 09:47:41;;;;;;;0.28;0.28;;;10.80;99.90;;;;;;5017134;28;20113;-71
2023/12/26 09:50:08;;;;;;;1.17;0.55;;;10.80;99.90;;;;;;5018161;28;20036;-71
2023/12/26 09:52:35;;;;;;;2.97;0.40;;;10.90;99.90;;;;;;5016560;28;20026;-71
2023/12/26 09:55:01;;;;;;;4.03;0.40;;;10.90;99.90;;;;;;5023020;28;20101;-71
2023/12/26 09:57:27;;;;;;;1.23;0.40;;;10.90;99.90;;;;;;5028153;28;20095;-70
2023/12/26 09:59:54;;;;;;;1.75;0.50;;;10.90;99.90;;;;;;5016999;28;20026;-70
2023/12/26 10:02:19;;;;;;;1.23;0.60;;;10.90;99.90;;;;;;5016049;28;20084;-69
2023/12/26 10:04:45;;;;;;;1.13;0.30;;;10.90;99.90;;;;;;5017029;28;20021;-69
2023/12/26 10:07:13;;;;;;;1.67;0.40;;;10.80;99.90;;;;;;5017524;28;20057;-69
2023/12/26 10:09:39;;;;;;;0.70;0.35;;;10.70;99.90;;;;;;5017762;28;20113;-69
2023/12/26 10:12:05;;;;;;;1.60;0.88;;;10.70;99.90;;;;;;5016693;28;20049;-69
2023/12/26 10:14:31;;;;;;;0.40;0.38;;;10.70;99.90;;;;;;5017546;28;20026;-69
2023/12/26 10:16:57;;;;;;;1.13;0.40;;;10.60;99.90;;;;;;5017372;28;20033;-69
2023/12/26 10:19:23;;;;;;;1.85;0.47;;;10.60;99.90;;;;;;5017606;28;20045;-69
2023/12/26 10:21:50;;;;;;;1.05;0.45;;;10.60;99.90;;;;;;5017437;28;20034;-69
2023/12/26 10:24:17;;;;;;;0.40;0.28;;;10.70;99.90;;;;;;5017502;28;20014;-69
2023/12/26 10:26:43;;;;;;;0.93;0.20;;;10.70;99.90;;;;;;5016393;28;20033;-69
2023/12/26 10:29:12;;;;;;;0.73;0.30;;;10.60;99.90;;;;;;5015853;28;20123;-69
2023/12/26 10:31:39;;;;;;;1.85;0.30;;;10.70;99.90;;;;;;5016690;28;20041;-70
2023/12/26 10:34:23;;;;;;;1.00;0.30;;;10.80;99.90;;;;;;5017164;28;20050;-71
2023/12/26 10:36:50;;;;;;;4.38;0.60;;;11.00;99.90;;;;;;5016307;28;20022;-71
2023/12/26 10:39:17;;;;;;;1.65;0.40;;;11.20;99.90;;;;;;5016109;28;20017;-70
2023/12/26 10:41:47;;;;;;;1.15;0.30;;;11.30;99.90;;;;;;5017135;28;20022;-70
2023/12/26 10:44:17;;;;;;;3.13;0.38;;;11.40;99.90;;;;;;5017240;28;20077;-71
2023/12/26 10:46:44;;;;;;;2.20;0.30;;;11.40;99.90;;;;;;5016125;28;20026;-71
2023/12/26 10:49:11;;;;;;;0.20;0.20;;;11.40;99.90;;;;;;5016677;28;20041;-70
2023/12/26 10:51:44;;;;;;;0.57;0.25;;;11.40;99.90;;;;;;5017233;28;20097;-71
2023/12/26 10:54:15;;;;;;;0.22;0.20;;;11.40;99.90;;;;;;5017449;28;20022;-71
2023/12/26 10:56:41;;;;;;;0.98;0.35;;;11.30;99.90;;;;;;5017158;28;20030;-71
2023/12/26 10:59:08;;;;;;;0.80;0.32;;;11.40;99.90;;;;;;5016916;28;20103;-70
2023/12/26 13:53:56;;;;;;;4.55;1.08;;;11.90;99.90;;;;;;5018330;28;20106;-71
2023/12/26 13:56:59;;;;;;;4.50;0.90;;;11.70;99.90;;;;;;5017012;28;20022;-72
2023/12/26 14:00:02;;;;;;;6.78;0.98;;;11.70;99.90;;;;;;5017685;28;20022;-71
2023/12/26 14:03:05;;;;;;;6.70;1.20;;;11.70;99.90;;;;;;5017778;28;20026;-71
2023/12/26 14:06:08;;;;;;;3.05;0.85;;;11.60;99.90;;;;;;5017622;28;20077;-71
2023/12/26 14:09:13;;;;;;;12.32;1.70;;;11.40;99.90;;;;;;5017733;28;20030;-71
2023/12/26 14:12:16;;;;;;;7.35;0.98;;;11.40;99.90;;;;;;5017633;28;20026;-71
2023/12/26 14:15:18;;;;;;;6.50;1.80;;;11.30;99.90;;;;;;5017703;28;20026;-71
2023/12/26 14:18:21;;;;;;;4.05;1.15;;;11.30;99.90;;;;;;5017657;28;20041;-71
2023/12/26 14:21:24;;;;;;;4.63;0.90;;;11.10;99.90;;;;;;5017434;28;20026;-71
2023/12/26 14:24:27;;;;;;;5.25;1.05;;;11.00;99.90;;;;;;5016567;28;20022;-71
2023/12/26 14:27:31;;;;;;;6.78;1.23;;;11.00;99.90;;;;;;5016837;28;20018;-71
2023/12/26 14:30:34;;;;;;;7.07;2.28;;;11.00;99.90;;;;;;5017384;28;20058;-71
2023/12/26 14:33:37;;;;;;;2.75;0.85;;;11.00;99.90;;;;;;5016823;28;20022;-71
2023/12/26 14:36:40;;;;;;;8.20;2.00;;;11.00;99.90;;;;;;5017228;28;20025;-71
2023/12/26 14:39:43;;;;;;;5.30;1.60;;;11.00;99.90;;;;;;5016502;28;20053;-72
2023/12/26 14:42:46;;;;;;;15.75;1.55;;;11.00;99.90;;;;;;5017452;28;20026;-71
2023/12/26 14:45:49;;;;;;;4.68;1.05;;;11.00;99.90;;;;;;5017469;28;20026;-71
2023/12/26 14:48:52;;;;;;;9.45;1.20;;;10.90;99.90;;;;;;5016209;28;20030;-71
2023/12/26 14:51:55;;;;;;;6.20;1.33;;;10.90;99.90;;;;;;5017094;28;20026;-71
2023/12/26 14:54:59;;;;;;;5.57;2.15;;;10.80;99.90;;;;;;5016547;28;20028;-71
2023/12/26 14:58:01;;;;;;;6.18;1.42;;;10.70;99.90;;;;;;5017146;28;20046;-71
2023/12/26 15:01:04;;;;;;;2.47;1.35;;;10.60;99.90;;;;;;5016991;28;20026;-71
2023/12/26 15:03:30;;;;;;;3.20;1.15;;;10.50;99.90;;;;;;5016207;28;20080;-71
2023/12/26 15:05:55;;;;;;;5.70;1.40;;;10.60;99.90;;;;;;5016131;28;20088;-71
2023/12/26 15:08:21;;;;;;;9.77;1.10;;;10.70;99.90;;;;;;5017025;28;20026;-72
2023/12/26 15:10:47;;;;;;;4.53;1.02;;;10.90;99.90;;;;;;5016342;28;20152;-71
2023/12/26 15:13:12;;;;;;;5.47;1.55;;;11.00;99.90;;;;;;5017008;28;20033;-71
2023/12/26 15:15:38;;;;;;;7.07;1.58;;;11.10;99.90;;;;;;5017074;28;20030;-71
2023/12/26 15:18:03;;;;;;;7.53;1.33;;;11.10;99.90;;;;;;5019642;28;20044;-71
2023/12/26 15:20:29;;;;;;;8.57;2.33;;;11.10;99.90;;;;;;5020621;28;20088;-71
2023/12/26 15:22:55;;;;;;;12.75;1.90;;;11.10;99.90;;;;;;5020862;28;20022;-71
2023/12/26 15:25:20;;;;;;;11.65;1.83;;;11.10;99.90;;;;;;5020579;28;20022;-71
2023/12/26 15:27:48;;;;;;;8.50;2.08;;;11.00;99.90;;;;;;5020792;28;20022;-71
2023/12/26 15:30:14;;;;;;;6.28;1.73;;;10.90;99.90;;;;;;5019732;28;20029;-71
2023/12/26 15:32:39;;;;;;;5.47;1.33;;;10.90;99.90;;;;;;5020497;28;20080;-71
2023/12/26 15:35:07;;;;;;;7.03;1.38;;;11.00;99.90;;;;;;5020772;28;20033;-71
2023/12/26 15:37:33;;;;;;;5.13;1.10;;;11.00;99.90;;;;;;5020698;28;20037;-70
2023/12/26 15:39:59;;;;;;;7.93;1.20;;;11.10;99.90;;;;;;5019718;28;20030;-70
2023/12/26 15:42:24;;;;;;;9.48;1.90;;;11.10;99.90;;;;;;5020653;28;20080;-71
2023/12/26 15:44:50;;;;;;;7.65;1.30;;;11.00;99.90;;;;;;5020161;28;20026;-71
2023/12/26 15:47:15;;;;;;;14.23;2.00;;;11.00;99.90;;;;;;5020579;28;20085;-71